sensor_id;sensor_type;location;lat;lon;timestamp;P1;durP1;ratioP1;P2;durP2;ratioP2
45296;SDS011;31040;51.622;10.420;2023-10-08T00:00:05;14.95;;;7.10;;
45296;SDS011;31040;51.622;10.420;2023-10-08T00:02:51;10.48;;;7.03;;
45296;SDS011;31040;51.622;10.420;2023-10-08T00:05:19;11.88;;;6.88;;
45296;SDS011;31040;51.622;10.420;2023-10-08T00:07:48;9.25;;;7.13;;
45296;SDS011;31040;51.622;10.420;2023-10-08T00:10:17;12.30;;;7.07;;
45296;SDS011;31040;51.622;10.420;2023-10-08T00:12:44;10.73;;;6.57;;
45296;SDS011;31040;51.622;10.420;2023-10-08T00:15:14;10.90;;;7.25;;
45296;SDS011;31040;51.622;10.420;2023-10-08T00:17:41;11.13;;;7.55;;
45296;SDS011;31040;51.622;10.420;2023-10-08T00:20:12;10.30;;;6.45;;
45296;SDS011;31040;51.622;10.420;2023-10-08T00:22:52;13.07;;;6.65;;
45296;SDS011;31040;51.622;10.420;2023-10-08T00:25:22;13.80;;;6.60;;
45296;SDS011;31040;51.622;10.420;2023-10-08T00:27:50;12.32;;;6.28;;
45296;SDS011;31040;51.622;10.420;2023-10-08T00:30:18;13.68;;;6.63;;
45296;SDS011;31040;51.622;10.420;2023-10-08T00:32:45;11.43;;;6.68;;
45296;SDS011;31040;51.622;10.420;2023-10-08T00:35:13;14.07;;;7.05;;
45296;SDS011;31040;51.622;10.420;2023-10-08T00:37:40;13.40;;;7.38;;
45296;SDS011;31040;51.622;10.420;2023-10-08T00:40:08;11.00;;;7.40;;
45296;SDS011;31040;51.622;10.420;2023-10-08T00:42:38;9.95;;;6.68;;
45296;SDS011;31040;51.622;10.420;2023-10-08T00:45:12;12.13;;;7.32;;
45296;SDS011;31040;51.622;10.420;2023-10-08T00:47:40;13.48;;;7.70;;
45296;SDS011;31040;51.622;10.420;2023-10-08T00:50:14;13.10;;;7.60;;
45296;SDS011;31040;51.622;10.420;2023-10-08T00:52:48;11.57;;;7.45;;
45296;SDS011;31040;51.622;10.420;2023-10-08T00:55:36;13.88;;;7.70;;
45296;SDS011;31040;51.622;10.420;2023-10-08T00:58:04;13.57;;;7.65;;
45296;SDS011;31040;51.622;10.420;2023-10-08T01:00:38;12.85;;;7.57;;
45296;SDS011;31040;51.622;10.420;2023-10-08T01:03:08;14.82;;;8.77;;
45296;SDS011;31040;51.622;10.420;2023-10-08T01:05:42;11.98;;;8.48;;
45296;SDS011;31040;51.622;10.420;2023-10-08T01:08:15;16.33;;;8.88;;
45296;SDS011;31040;51.622;10.420;2023-10-08T01:11:21;12.93;;;7.82;;
45296;SDS011;31040;51.622;10.420;2023-10-08T01:13:58;16.10;;;9.60;;
45296;SDS011;31040;51.622;10.420;2023-10-08T01:16:25;19.00;;;9.20;;
45296;SDS011;31040;51.622;10.420;2023-10-08T01:18:53;17.13;;;8.90;;
45296;SDS011;31040;51.622;10.420;2023-10-08T01:21:21;13.98;;;9.23;;
45296;SDS011;31040;51.622;10.420;2023-10-08T01:24:01;18.10;;;10.10;;
45296;SDS011;31040;51.622;10.420;2023-10-08T01:26:35;11.02;;;8.48;;
45296;SDS011;31040;51.622;10.420;2023-10-08T01:29:09;14.40;;;10.20;;
45296;SDS011;31040;51.622;10.420;2023-10-08T01:31:46;16.13;;;9.50;;
45296;SDS011;31040;51.622;10.420;2023-10-08T01:34:15;11.95;;;8.88;;
45296;SDS011;31040;51.622;10.420;2023-10-08T01:36:43;16.95;;;9.98;;
45296;SDS011;31040;51.622;10.420;2023-10-08T01:39:11;12.82;;;9.63;;
45296;SDS011;31040;51.622;10.420;2023-10-08T01:41:43;12.18;;;9.50;;
45296;SDS011;31040;51.622;10.420;2023-10-08T01:44:10;12.05;;;9.15;;
45296;SDS011;31040;51.622;10.420;2023-10-08T01:46:38;18.75;;;10.93;;
45296;SDS011;31040;51.622;10.420;2023-10-08T01:49:09;14.45;;;9.50;;
45296;SDS011;31040;51.622;10.420;2023-10-08T01:51:41;19.77;;;9.98;;
45296;SDS011;31040;51.622;10.420;2023-10-08T01:54:15;14.35;;;10.82;;
45296;SDS011;31040;51.622;10.420;2023-10-08T01:56:47;13.63;;;10.75;;
45296;SDS011;31040;51.622;10.420;2023-10-08T01:59:16;14.07;;;10.63;;
45296;SDS011;31040;51.622;10.420;2023-10-08T02:01:44;14.50;;;11.13;;
45296;SDS011;31040;51.622;10.420;2023-10-08T02:04:12;12.98;;;9.20;;
45296;SDS011;31040;51.622;10.420;2023-10-08T02:06:43;12.00;;;8.45;;
45296;SDS011;31040;51.622;10.420;2023-10-08T02:09:12;12.13;;;6.93;;
45296;SDS011;31040;51.622;10.420;2023-10-08T02:11:50;9.05;;;5.53;;
45296;SDS011;31040;51.622;10.420;2023-10-08T02:14:17;5.57;;;4.68;;
45296;SDS011;31040;51.622;10.420;2023-10-08T02:16:45;6.50;;;4.30;;
45296;SDS011;31040;51.622;10.420;2023-10-08T02:19:13;6.00;;;4.30;;
45296;SDS011;31040;51.622;10.420;2023-10-08T02:21:45;2.90;;;2.00;;
45296;SDS011;31040;51.622;10.420;2023-10-08T02:24:12;1.85;;;0.90;;
45296;SDS011;31040;51.622;10.420;2023-10-08T02:26:40;1.85;;;0.70;;
45296;SDS011;31040;51.622;10.420;2023-10-08T02:29:08;0.40;;;0.40;;
45296;SDS011;31040;51.622;10.420;2023-10-08T02:31:40;0.63;;;0.40;;
45296;SDS011;31040;51.622;10.420;2023-10-08T02:34:08;1.27;;;0.40;;
45296;SDS011;31040;51.622;10.420;2023-10-08T02:36:36;0.38;;;0.30;;
45296;SDS011;31040;51.622;10.420;2023-10-08T02:39:03;0.95;;;0.28;;
45296;SDS011;31040;51.622;10.420;2023-10-08T02:41:43;0.20;;;0.10;;
45296;SDS011;31040;51.622;10.420;2023-10-08T02:44:14;1.65;;;0.20;;
45296;SDS011;31040;51.622;10.420;2023-10-08T02:46:45;0.00;;;0.00;;
45296;SDS011;31040;51.622;10.420;2023-10-08T02:49:16;0.15;;;0.10;;
45296;SDS011;31040;51.622;10.420;2023-10-08T02:51:47;0.10;;;0.10;;
45296;SDS011;31040;51.622;10.420;2023-10-08T02:54:17;0.22;;;0.08;;
45296;SDS011;31040;51.622;10.420;2023-10-08T02:56:46;0.10;;;0.10;;
45296;SDS011;31040;51.622;10.420;2023-10-08T02:59:13;0.40;;;0.35;;
45296;SDS011;31040;51.622;10.420;2023-10-08T03:01:41;0.22;;;0.15;;
45296;SDS011;31040;51.622;10.420;2023-10-08T03:04:09;1.40;;;0.20;;
45296;SDS011;31040;51.622;10.420;2023-10-08T03:06:46;0.10;;;0.10;;
45296;SDS011;31040;51.622;10.420;2023-10-08T03:09:16;0.25;;;0.10;;
45296;SDS011;31040;51.622;10.420;2023-10-08T03:11:50;0.28;;;0.00;;
45296;SDS011;31040;51.622;10.420;2023-10-08T03:14:19;1.05;;;0.25;;
45296;SDS011;31040;51.622;10.420;2023-10-08T03:16:50;1.35;;;0.10;;
45296;SDS011;31040;51.622;10.420;2023-10-08T03:19:30;0.00;;;0.00;;
45296;SDS011;31040;51.622;10.420;2023-10-08T03:21:57;0.00;;;0.00;;
45296;SDS011;31040;51.622;10.420;2023-10-08T03:24:24;0.05;;;0.00;;
45296;SDS011;31040;51.622;10.420;2023-10-08T03:26:58;0.40;;;0.20;;
45296;SDS011;31040;51.622;10.420;2023-10-08T03:32:10;0.10;;;0.10;;
45296;SDS011;31040;51.622;10.420;2023-10-08T03:34:45;0.28;;;0.10;;
45296;SDS011;31040;51.622;10.420;2023-10-08T03:37:16;0.30;;;0.10;;
45296;SDS011;31040;51.622;10.420;2023-10-08T03:39:48;0.08;;;0.08;;
45296;SDS011;31040;51.622;10.420;2023-10-08T03:42:22;0.47;;;0.10;;
45296;SDS011;31040;51.622;10.420;2023-10-08T03:44:50;0.40;;;0.10;;
45296;SDS011;31040;51.622;10.420;2023-10-08T03:47:19;0.80;;;0.10;;
45296;SDS011;31040;51.622;10.420;2023-10-08T03:49:49;1.25;;;0.25;;
45296;SDS011;31040;51.622;10.420;2023-10-08T03:52:17;0.95;;;0.10;;
45296;SDS011;31040;51.622;10.420;2023-10-08T03:54:50;1.95;;;0.17;;
45296;SDS011;31040;51.622;10.420;2023-10-08T03:57:48;0.10;;;0.10;;
45296;SDS011;31040;51.622;10.420;2023-10-08T04:00:24;1.55;;;0.10;;
45296;SDS011;31040;51.622;10.420;2023-10-08T04:03:08;0.00;;;0.00;;
45296;SDS011;31040;51.622;10.420;2023-10-08T04:05:38;0.08;;;0.08;;
45296;SDS011;31040;51.622;10.420;2023-10-08T04:08:30;0.65;;;0.10;;
45296;SDS011;31040;51.622;10.420;2023-10-08T04:11:09;0.10;;;0.10;;
45296;SDS011;31040;51.622;10.420;2023-10-08T04:13:57;0.10;;;0.10;;
45296;SDS011;31040;51.622;10.420;2023-10-08T04:16:28;0.75;;;0.10;;
45296;SDS011;31040;51.622;10.420;2023-10-08T04:18:56;0.25;;;0.20;;
45296;SDS011;31040;51.622;10.420;2023-10-08T04:21:24;1.40;;;0.20;;
45296;SDS011;31040;51.622;10.420;2023-10-08T04:23:54;0.20;;;0.20;;
45296;SDS011;31040;51.622;10.420;2023-10-08T04:26:24;0.35;;;0.20;;
45296;SDS011;31040;51.622;10.420;2023-10-08T04:28:56;0.10;;;0.10;;
45296;SDS011;31040;51.622;10.420;2023-10-08T04:31:24;0.90;;;0.10;;
45296;SDS011;31040;51.622;10.420;2023-10-08T04:33:55;0.10;;;0.10;;
45296;SDS011;31040;51.622;10.420;2023-10-08T04:36:27;0.20;;;0.10;;
45296;SDS011;31040;51.622;10.420;2023-10-08T04:38:55;0.10;;;0.10;;
45296;SDS011;31040;51.622;10.420;2023-10-08T04:41:28;0.38;;;0.20;;
45296;SDS011;31040;51.622;10.420;2023-10-08T04:43:56;0.80;;;0.10;;
45296;SDS011;31040;51.622;10.420;2023-10-08T04:46:23;0.00;;;0.00;;
45296;SDS011;31040;51.622;10.420;2023-10-08T04:49:06;0.10;;;0.10;;
45296;SDS011;31040;51.622;10.420;2023-10-08T04:51:37;0.00;;;0.00;;
45296;SDS011;31040;51.622;10.420;2023-10-08T04:54:10;0.10;;;0.10;;
45296;SDS011;31040;51.622;10.420;2023-10-08T04:56:44;0.60;;;0.20;;
45296;SDS011;31040;51.622;10.420;2023-10-08T04:59:16;0.00;;;0.00;;
45296;SDS011;31040;51.622;10.420;2023-10-08T05:01:48;0.17;;;0.10;;
45296;SDS011;31040;51.622;10.420;2023-10-08T05:04:36;0.20;;;0.20;;
45296;SDS011;31040;51.622;10.420;2023-10-08T05:07:23;0.30;;;0.30;;
45296;SDS011;31040;51.622;10.420;2023-10-08T05:09:53;0.17;;;0.17;;
45296;SDS011;31040;51.622;10.420;2023-10-08T05:12:30;0.20;;;0.13;;
45296;SDS011;31040;51.622;10.420;2023-10-08T05:15:16;0.40;;;0.30;;
45296;SDS011;31040;51.622;10.420;2023-10-08T05:17:44;0.20;;;0.20;;
45296;SDS011;31040;51.622;10.420;2023-10-08T05:20:32;0.22;;;0.13;;
45296;SDS011;31040;51.622;10.420;2023-10-08T05:23:16;0.82;;;0.30;;
45296;SDS011;31040;51.622;10.420;2023-10-08T05:25:49;0.10;;;0.10;;
45296;SDS011;31040;51.622;10.420;2023-10-08T05:31:09;0.20;;;0.20;;
45296;SDS011;31040;51.622;10.420;2023-10-08T05:33:42;1.35;;;0.20;;
45296;SDS011;31040;51.622;10.420;2023-10-08T05:36:29;0.30;;;0.20;;
45296;SDS011;31040;51.622;10.420;2023-10-08T05:39:16;0.55;;;0.22;;
45296;SDS011;31040;51.622;10.420;2023-10-08T05:42:00;0.60;;;0.40;;
45296;SDS011;31040;51.622;10.420;2023-10-08T05:44:43;0.75;;;0.20;;
45296;SDS011;31040;51.622;10.420;2023-10-08T05:47:30;0.80;;;0.47;;
45296;SDS011;31040;51.622;10.420;2023-10-08T05:50:00;2.72;;;0.47;;
45296;SDS011;31040;51.622;10.420;2023-10-08T05:52:44;1.05;;;0.52;;
45296;SDS011;31040;51.622;10.420;2023-10-08T05:55:30;1.75;;;0.40;;
45296;SDS011;31040;51.622;10.420;2023-10-08T05:58:02;0.82;;;0.47;;
45296;SDS011;31040;51.622;10.420;2023-10-08T06:00:46;0.85;;;0.47;;
45296;SDS011;31040;51.622;10.420;2023-10-08T06:03:20;1.45;;;0.50;;
45296;SDS011;31040;51.622;10.420;2023-10-08T06:06:26;1.70;;;0.60;;
45296;SDS011;31040;51.622;10.420;2023-10-08T06:09:04;1.50;;;0.70;;
45296;SDS011;31040;51.622;10.420;2023-10-08T06:11:47;2.08;;;0.60;;
45296;SDS011;31040;51.622;10.420;2023-10-08T06:14:36;1.95;;;0.40;;
45296;SDS011;31040;51.622;10.420;2023-10-08T06:17:33;1.25;;;0.68;;
45296;SDS011;31040;51.622;10.420;2023-10-08T06:20:11;0.80;;;0.55;;
45296;SDS011;31040;51.622;10.420;2023-10-08T06:22:43;1.65;;;0.40;;
45296;SDS011;31040;51.622;10.420;2023-10-08T06:25:11;1.67;;;0.60;;
45296;SDS011;31040;51.622;10.420;2023-10-08T06:27:52;1.88;;;0.88;;
45296;SDS011;31040;51.622;10.420;2023-10-08T06:30:24;0.80;;;0.40;;
45296;SDS011;31040;51.622;10.420;2023-10-08T06:33:01;1.00;;;0.52;;
45296;SDS011;31040;51.622;10.420;2023-10-08T06:35:30;1.65;;;0.60;;
45296;SDS011;31040;51.622;10.420;2023-10-08T06:37:59;3.20;;;1.23;;
45296;SDS011;31040;51.622;10.420;2023-10-08T06:40:34;0.45;;;0.40;;
45296;SDS011;31040;51.622;10.420;2023-10-08T06:43:05;0.70;;;0.50;;
45296;SDS011;31040;51.622;10.420;2023-10-08T06:45:41;2.00;;;0.47;;
45296;SDS011;31040;51.622;10.420;2023-10-08T06:48:10;1.23;;;0.45;;
45296;SDS011;31040;51.622;10.420;2023-10-08T06:50:44;1.23;;;0.70;;
45296;SDS011;31040;51.622;10.420;2023-10-08T06:53:12;1.95;;;0.70;;
45296;SDS011;31040;51.622;10.420;2023-10-08T06:55:41;1.77;;;0.63;;
45296;SDS011;31040;51.622;10.420;2023-10-08T06:58:08;1.45;;;0.50;;
45296;SDS011;31040;51.622;10.420;2023-10-08T07:00:37;1.52;;;0.75;;
45296;SDS011;31040;51.622;10.420;2023-10-08T07:03:16;1.95;;;1.23;;
45296;SDS011;31040;51.622;10.420;2023-10-08T07:05:48;2.70;;;0.60;;
45296;SDS011;31040;51.622;10.420;2023-10-08T07:08:25;1.30;;;0.50;;
45296;SDS011;31040;51.622;10.420;2023-10-08T07:10:53;8.07;;;1.70;;
45296;SDS011;31040;51.622;10.420;2023-10-08T07:13:23;1.17;;;0.57;;
45296;SDS011;31040;51.622;10.420;2023-10-08T07:15:53;1.25;;;0.70;;
45296;SDS011;31040;51.622;10.420;2023-10-08T07:18:21;3.05;;;1.25;;
45296;SDS011;31040;51.622;10.420;2023-10-08T07:20:52;1.42;;;0.52;;
45296;SDS011;31040;51.622;10.420;2023-10-08T07:23:21;1.08;;;0.68;;
45296;SDS011;31040;51.622;10.420;2023-10-08T07:25:52;18.45;;;2.60;;
45296;SDS011;31040;51.622;10.420;2023-10-08T07:28:19;1.67;;;0.80;;
45296;SDS011;31040;51.622;10.420;2023-10-08T07:30:47;2.20;;;0.57;;
45296;SDS011;31040;51.622;10.420;2023-10-08T07:33:15;1.20;;;0.57;;
45296;SDS011;31040;51.622;10.420;2023-10-08T07:35:47;2.08;;;0.75;;
45296;SDS011;31040;51.622;10.420;2023-10-08T07:38:26;1.30;;;0.80;;
45296;SDS011;31040;51.622;10.420;2023-10-08T07:40:55;3.05;;;0.73;;
45296;SDS011;31040;51.622;10.420;2023-10-08T07:43:23;2.47;;;0.70;;
45296;SDS011;31040;51.622;10.420;2023-10-08T07:45:51;2.13;;;0.75;;
45296;SDS011;31040;51.622;10.420;2023-10-08T07:48:20;4.70;;;0.98;;
45296;SDS011;31040;51.622;10.420;2023-10-08T07:50:51;4.00;;;0.90;;
45296;SDS011;31040;51.622;10.420;2023-10-08T07:53:18;2.35;;;0.65;;
45296;SDS011;31040;51.622;10.420;2023-10-08T07:55:46;1.17;;;0.60;;
45296;SDS011;31040;51.622;10.420;2023-10-08T07:58:15;2.47;;;0.75;;
45296;SDS011;31040;51.622;10.420;2023-10-08T08:00:42;1.75;;;0.60;;
45296;SDS011;31040;51.622;10.420;2023-10-08T08:03:18;2.42;;;0.80;;
45296;SDS011;31040;51.622;10.420;2023-10-08T08:05:47;3.50;;;0.98;;
45296;SDS011;31040;51.622;10.420;2023-10-08T08:08:15;2.85;;;1.42;;
45296;SDS011;31040;51.622;10.420;2023-10-08T08:10:44;2.20;;;1.48;;
45296;SDS011;31040;51.622;10.420;2023-10-08T08:13:12;1.92;;;0.77;;
45296;SDS011;31040;51.622;10.420;2023-10-08T08:15:47;1.30;;;0.60;;
45296;SDS011;31040;51.622;10.420;2023-10-08T08:18:18;3.67;;;1.20;;
45296;SDS011;31040;51.622;10.420;2023-10-08T08:20:49;1.90;;;0.70;;
45296;SDS011;31040;51.622;10.420;2023-10-08T08:23:16;2.83;;;1.05;;
45296;SDS011;31040;51.622;10.420;2023-10-08T08:25:44;2.05;;;0.70;;
45296;SDS011;31040;51.622;10.420;2023-10-08T08:28:32;2.00;;;0.85;;
45296;SDS011;31040;51.622;10.420;2023-10-08T08:31:03;2.67;;;0.93;;
45296;SDS011;31040;51.622;10.420;2023-10-08T08:33:31;2.28;;;1.20;;
45296;SDS011;31040;51.622;10.420;2023-10-08T08:36:19;2.60;;;1.17;;
45296;SDS011;31040;51.622;10.420;2023-10-08T08:38:48;2.10;;;1.40;;
45296;SDS011;31040;51.622;10.420;2023-10-08T08:41:15;1.83;;;1.30;;
45296;SDS011;31040;51.622;10.420;2023-10-08T08:43:48;2.72;;;1.20;;
45296;SDS011;31040;51.622;10.420;2023-10-08T08:46:15;2.35;;;1.20;;
45296;SDS011;31040;51.622;10.420;2023-10-08T08:48:43;3.30;;;1.58;;
45296;SDS011;31040;51.622;10.420;2023-10-08T08:51:11;1.98;;;1.48;;
45296;SDS011;31040;51.622;10.420;2023-10-08T08:53:39;3.08;;;1.50;;
45296;SDS011;31040;51.622;10.420;2023-10-08T08:56:10;3.53;;;2.05;;
45296;SDS011;31040;51.622;10.420;2023-10-08T08:58:39;3.42;;;1.80;;
45296;SDS011;31040;51.622;10.420;2023-10-08T09:01:09;2.88;;;1.85;;
45296;SDS011;31040;51.622;10.420;2023-10-08T09:03:39;8.40;;;3.90;;
45296;SDS011;31040;51.622;10.420;2023-10-08T09:06:07;4.18;;;2.03;;
45296;SDS011;31040;51.622;10.420;2023-10-08T09:08:35;5.00;;;1.67;;
45296;SDS011;31040;51.622;10.420;2023-10-08T09:11:03;4.72;;;1.70;;
45296;SDS011;31040;51.622;10.420;2023-10-08T09:13:31;3.22;;;1.25;;
45296;SDS011;31040;51.622;10.420;2023-10-08T09:16:03;3.30;;;2.72;;
45296;SDS011;31040;51.622;10.420;2023-10-08T09:18:34;4.05;;;1.98;;
45296;SDS011;31040;51.622;10.420;2023-10-08T09:21:11;2.15;;;1.60;;
45296;SDS011;31040;51.622;10.420;2023-10-08T09:23:42;3.15;;;1.23;;
45296;SDS011;31040;51.622;10.420;2023-10-08T09:26:10;5.80;;;1.70;;
45296;SDS011;31040;51.622;10.420;2023-10-08T09:28:44;3.65;;;1.40;;
45296;SDS011;31040;51.622;10.420;2023-10-08T09:31:13;5.45;;;1.65;;
45296;SDS011;31040;51.622;10.420;2023-10-08T09:33:41;4.30;;;1.85;;
45296;SDS011;31040;51.622;10.420;2023-10-08T09:36:09;6.45;;;2.33;;
45296;SDS011;31040;51.622;10.420;2023-10-08T09:38:42;3.55;;;1.65;;
45296;SDS011;31040;51.622;10.420;2023-10-08T09:41:11;5.72;;;2.08;;
45296;SDS011;31040;51.622;10.420;2023-10-08T09:43:39;1.80;;;1.15;;
45296;SDS011;31040;51.622;10.420;2023-10-08T09:46:09;3.70;;;1.23;;
45296;SDS011;31040;51.622;10.420;2023-10-08T09:48:41;6.15;;;2.25;;
45296;SDS011;31040;51.622;10.420;2023-10-08T09:51:10;3.65;;;1.08;;
45296;SDS011;31040;51.622;10.420;2023-10-08T09:53:52;3.92;;;1.52;;
45296;SDS011;31040;51.622;10.420;2023-10-08T09:56:20;3.15;;;1.27;;
45296;SDS011;31040;51.622;10.420;2023-10-08T09:58:49;2.45;;;1.52;;
45296;SDS011;31040;51.622;10.420;2023-10-08T10:01:18;4.13;;;1.58;;
45296;SDS011;31040;51.622;10.420;2023-10-08T10:03:46;2.30;;;1.33;;
45296;SDS011;31040;51.622;10.420;2023-10-08T10:06:14;3.38;;;1.15;;
45296;SDS011;31040;51.622;10.420;2023-10-08T10:08:44;2.70;;;1.05;;
45296;SDS011;31040;51.622;10.420;2023-10-08T10:11:12;3.03;;;0.95;;
45296;SDS011;31040;51.622;10.420;2023-10-08T10:13:43;4.68;;;1.45;;
45296;SDS011;31040;51.622;10.420;2023-10-08T10:16:11;4.18;;;1.38;;
45296;SDS011;31040;51.622;10.420;2023-10-08T10:18:43;2.85;;;1.05;;
45296;SDS011;31040;51.622;10.420;2023-10-08T10:26:28;2.92;;;1.00;;
45296;SDS011;31040;51.622;10.420;2023-10-08T10:31:38;1.85;;;0.95;;
45296;SDS011;31040;51.622;10.420;2023-10-08T10:34:10;7.63;;;1.60;;
45296;SDS011;31040;51.622;10.420;2023-10-08T10:36:39;1.85;;;1.25;;
45296;SDS011;31040;51.622;10.420;2023-10-08T10:39:09;2.30;;;1.27;;
45296;SDS011;31040;51.622;10.420;2023-10-08T10:44:17;1.60;;;0.88;;
45296;SDS011;31040;51.622;10.420;2023-10-08T10:46:45;2.38;;;1.10;;
45296;SDS011;31040;51.622;10.420;2023-10-08T10:49:39;2.13;;;1.15;;
45296;SDS011;31040;51.622;10.420;2023-10-08T10:52:27;2.13;;;1.05;;
45296;SDS011;31040;51.622;10.420;2023-10-08T10:54:59;2.58;;;1.00;;
45296;SDS011;31040;51.622;10.420;2023-10-08T11:00:20;2.83;;;0.90;;
45296;SDS011;31040;51.622;10.420;2023-10-08T11:03:01;2.90;;;1.10;;
45296;SDS011;31040;51.622;10.420;2023-10-08T11:05:45;1.67;;;1.30;;
45296;SDS011;31040;51.622;10.420;2023-10-08T11:08:18;4.30;;;1.08;;
45296;SDS011;31040;51.622;10.420;2023-10-08T11:10:47;3.00;;;1.10;;
45296;SDS011;31040;51.622;10.420;2023-10-08T11:13:21;4.25;;;1.00;;
45296;SDS011;31040;51.622;10.420;2023-10-08T11:15:55;2.20;;;1.17;;
45296;SDS011;31040;51.622;10.420;2023-10-08T11:18:26;2.08;;;0.98;;
45296;SDS011;31040;51.622;10.420;2023-10-08T11:21:05;3.42;;;0.93;;
45296;SDS011;31040;51.622;10.420;2023-10-08T11:23:44;4.60;;;1.58;;
45296;SDS011;31040;51.622;10.420;2023-10-08T11:26:36;2.92;;;1.30;;
45296;SDS011;31040;51.622;10.420;2023-10-08T11:29:15;3.53;;;1.10;;
45296;SDS011;31040;51.622;10.420;2023-10-08T11:31:51;8.20;;;2.22;;
45296;SDS011;31040;51.622;10.420;2023-10-08T11:34:20;6.13;;;1.55;;
45296;SDS011;31040;51.622;10.420;2023-10-08T11:36:53;2.40;;;1.00;;
45296;SDS011;31040;51.622;10.420;2023-10-08T11:39:22;4.75;;;1.40;;
45296;SDS011;31040;51.622;10.420;2023-10-08T11:41:59;3.53;;;0.98;;
45296;SDS011;31040;51.622;10.420;2023-10-08T11:44:33;2.03;;;0.90;;
45296;SDS011;31040;51.622;10.420;2023-10-08T11:47:04;2.88;;;1.27;;
45296;SDS011;31040;51.622;10.420;2023-10-08T11:49:39;4.88;;;1.35;;
45296;SDS011;31040;51.622;10.420;2023-10-08T11:52:14;3.72;;;1.55;;
45296;SDS011;31040;51.622;10.420;2023-10-08T11:54:42;3.75;;;1.20;;
45296;SDS011;31040;51.622;10.420;2023-10-08T11:57:10;6.65;;;1.23;;
45296;SDS011;31040;51.622;10.420;2023-10-08T11:59:38;2.95;;;1.25;;
45296;SDS011;31040;51.622;10.420;2023-10-08T12:02:06;2.95;;;1.20;;
45296;SDS011;31040;51.622;10.420;2023-10-08T12:04:33;2.88;;;1.33;;
45296;SDS011;31040;51.622;10.420;2023-10-08T12:07:03;2.78;;;0.88;;
45296;SDS011;31040;51.622;10.420;2023-10-08T12:09:33;4.93;;;1.95;;
45296;SDS011;31040;51.622;10.420;2023-10-08T12:12:04;1.95;;;1.30;;
45296;SDS011;31040;51.622;10.420;2023-10-08T12:14:36;4.97;;;1.08;;
45296;SDS011;31040;51.622;10.420;2023-10-08T12:17:04;2.65;;;1.10;;
45296;SDS011;31040;51.622;10.420;2023-10-08T12:19:38;5.90;;;1.27;;
45296;SDS011;31040;51.622;10.420;2023-10-08T12:22:09;2.55;;;1.10;;
45296;SDS011;31040;51.622;10.420;2023-10-08T12:24:41;4.68;;;1.13;;
45296;SDS011;31040;51.622;10.420;2023-10-08T12:27:10;3.08;;;1.40;;
45296;SDS011;31040;51.622;10.420;2023-10-08T12:29:38;1.98;;;1.25;;
45296;SDS011;31040;51.622;10.420;2023-10-08T12:32:06;3.25;;;1.55;;
45296;SDS011;31040;51.622;10.420;2023-10-08T12:34:44;2.05;;;1.40;;
45296;SDS011;31040;51.622;10.420;2023-10-08T12:37:11;4.10;;;1.15;;
45296;SDS011;31040;51.622;10.420;2023-10-08T12:39:41;3.47;;;1.25;;
45296;SDS011;31040;51.622;10.420;2023-10-08T12:42:26;2.25;;;1.10;;
45296;SDS011;31040;51.622;10.420;2023-10-08T12:44:54;6.78;;;1.38;;
45296;SDS011;31040;51.622;10.420;2023-10-08T12:47:24;2.92;;;1.00;;
45296;SDS011;31040;51.622;10.420;2023-10-08T12:49:55;2.55;;;0.90;;
45296;SDS011;31040;51.622;10.420;2023-10-08T12:52:24;3.58;;;0.95;;
45296;SDS011;31040;51.622;10.420;2023-10-08T12:54:54;2.38;;;1.50;;
45296;SDS011;31040;51.622;10.420;2023-10-08T12:57:24;4.40;;;1.23;;
45296;SDS011;31040;51.622;10.420;2023-10-08T12:59:59;4.13;;;1.10;;
45296;SDS011;31040;51.622;10.420;2023-10-08T13:02:26;1.83;;;0.98;;
45296;SDS011;31040;51.622;10.420;2023-10-08T13:04:55;3.45;;;1.33;;
45296;SDS011;31040;51.622;10.420;2023-10-08T13:07:25;2.92;;;1.00;;
45296;SDS011;31040;51.622;10.420;2023-10-08T13:09:53;6.28;;;1.20;;
45296;SDS011;31040;51.622;10.420;2023-10-08T13:12:20;4.22;;;1.48;;
45296;SDS011;31040;51.622;10.420;2023-10-08T13:14:47;2.25;;;1.20;;
45296;SDS011;31040;51.622;10.420;2023-10-08T13:17:16;2.70;;;1.00;;
45296;SDS011;31040;51.622;10.420;2023-10-08T13:19:45;2.30;;;1.38;;
45296;SDS011;31040;51.622;10.420;2023-10-08T13:22:13;1.75;;;1.08;;
45296;SDS011;31040;51.622;10.420;2023-10-08T13:24:46;5.55;;;1.30;;
45296;SDS011;31040;51.622;10.420;2023-10-08T13:27:15;3.42;;;1.33;;
45296;SDS011;31040;51.622;10.420;2023-10-08T13:29:43;3.95;;;1.27;;
45296;SDS011;31040;51.622;10.420;2023-10-08T13:32:10;3.22;;;1.30;;
45296;SDS011;31040;51.622;10.420;2023-10-08T13:34:44;3.85;;;1.48;;
45296;SDS011;31040;51.622;10.420;2023-10-08T13:37:12;3.30;;;1.75;;
45296;SDS011;31040;51.622;10.420;2023-10-08T13:39:42;4.68;;;2.13;;
45296;SDS011;31040;51.622;10.420;2023-10-08T13:42:09;2.78;;;1.65;;
45296;SDS011;31040;51.622;10.420;2023-10-08T13:44:43;3.58;;;1.50;;
45296;SDS011;31040;51.622;10.420;2023-10-08T13:47:11;2.67;;;1.35;;
45296;SDS011;31040;51.622;10.420;2023-10-08T13:49:41;1.42;;;0.90;;
45296;SDS011;31040;51.622;10.420;2023-10-08T13:52:09;4.10;;;2.00;;
45296;SDS011;31040;51.622;10.420;2023-10-08T13:54:37;3.20;;;1.70;;
45296;SDS011;31040;51.622;10.420;2023-10-08T13:57:08;2.95;;;1.27;;
45296;SDS011;31040;51.622;10.420;2023-10-08T13:59:36;3.78;;;1.42;;
45296;SDS011;31040;51.622;10.420;2023-10-08T14:02:04;4.15;;;1.50;;
45296;SDS011;31040;51.622;10.420;2023-10-08T14:04:41;2.38;;;1.20;;
45296;SDS011;31040;51.622;10.420;2023-10-08T14:07:11;4.82;;;1.30;;
45296;SDS011;31040;51.622;10.420;2023-10-08T14:09:45;2.85;;;1.27;;
45296;SDS011;31040;51.622;10.420;2023-10-08T14:12:13;2.75;;;1.38;;
45296;SDS011;31040;51.622;10.420;2023-10-08T14:14:40;1.75;;;1.05;;
45296;SDS011;31040;51.622;10.420;2023-10-08T14:17:10;1.67;;;1.27;;
45296;SDS011;31040;51.622;10.420;2023-10-08T14:19:42;2.15;;;1.23;;
45296;SDS011;31040;51.622;10.420;2023-10-08T14:22:13;1.40;;;0.95;;
45296;SDS011;31040;51.622;10.420;2023-10-08T14:24:42;2.97;;;1.30;;
45296;SDS011;31040;51.622;10.420;2023-10-08T14:27:13;2.42;;;0.95;;
45296;SDS011;31040;51.622;10.420;2023-10-08T14:29:45;2.85;;;1.10;;
45296;SDS011;31040;51.622;10.420;2023-10-08T14:32:18;3.45;;;1.60;;
45296;SDS011;31040;51.622;10.420;2023-10-08T14:34:46;2.92;;;1.63;;
45296;SDS011;31040;51.622;10.420;2023-10-08T14:37:14;3.30;;;1.40;;
45296;SDS011;31040;51.622;10.420;2023-10-08T14:40:00;2.63;;;0.90;;
45296;SDS011;31040;51.622;10.420;2023-10-08T14:42:46;2.67;;;0.98;;
45296;SDS011;31040;51.622;10.420;2023-10-08T14:45:31;2.13;;;0.77;;
45296;SDS011;31040;51.622;10.420;2023-10-08T14:48:02;3.35;;;1.20;;
45296;SDS011;31040;51.622;10.420;2023-10-08T14:50:34;5.65;;;0.98;;
45296;SDS011;31040;51.622;10.420;2023-10-08T14:53:02;2.58;;;1.45;;
45296;SDS011;31040;51.622;10.420;2023-10-08T14:55:32;3.63;;;1.35;;
45296;SDS011;31040;51.622;10.420;2023-10-08T14:58:02;5.55;;;1.08;;
45296;SDS011;31040;51.622;10.420;2023-10-08T15:00:35;4.25;;;1.77;;
45296;SDS011;31040;51.622;10.420;2023-10-08T15:03:03;3.20;;;1.80;;
45296;SDS011;31040;51.622;10.420;2023-10-08T15:05:31;7.35;;;2.95;;
45296;SDS011;31040;51.622;10.420;2023-10-08T15:07:58;5.53;;;1.40;;
45296;SDS011;31040;51.622;10.420;2023-10-08T15:10:26;4.40;;;2.00;;
45296;SDS011;31040;51.622;10.420;2023-10-08T15:12:53;9.23;;;2.47;;
45296;SDS011;31040;51.622;10.420;2023-10-08T15:15:21;3.70;;;1.30;;
45296;SDS011;31040;51.622;10.420;2023-10-08T15:17:51;3.15;;;1.42;;
45296;SDS011;31040;51.622;10.420;2023-10-08T15:20:21;1.65;;;1.00;;